Time;durP1;ratioP1;P1;durP2;ratioP2;P2;SDS_P1;SDS_P2;PMS_P1;PMS_P2;Temp;Humidity;BMP_temperature;BMP_pressure;BME280_temperature;BME280_humidity;BME280_pressure;Samples;Min_cycle;Max_cycle;Signal;HPM_P1;HPM_P2
2021/08/01 00:00:54;;;;;;;3.50;1.95;;;;;;;;;;5066339;28;20063;-49
2021/08/01 00:03:20;;;;;;;3.53;1.83;;;;;;;;;;5054893;28;20362;-49
2021/08/01 00:05:46;;;;;;;2.45;1.60;;;;;;;;;;5066874;28;20070;-49
2021/08/01 00:08:12;;;;;;;4.30;1.75;;;;;;;;;;5062920;28;20029;-48
2021/08/01 00:10:39;;;;;;;6.93;1.80;;;;;;;;;;5067341;28;20052;-49
2021/08/01 00:13:06;;;;;;;2.97;2.35;;;;;;;;;;5083528;28;20024;-49
2021/08/01 00:15:32;;;;;;;4.10;1.60;;;;;;;;;;5063293;28;20029;-49
2021/08/01 00:17:58;;;;;;;2.53;1.80;;;;;;;;;;5067398;28;20074;-49
2021/08/01 00:20:24;;;;;;;3.80;1.90;;;;;;;;;;5058978;28;20099;-48
2021/08/01 00:22:50;;;;;;;2.75;1.80;;;;;;;;;;5066674;28;20025;-49
2021/08/01 00:25:16;;;;;;;3.05;1.95;;;;;;;;;;5074448;28;20384;-48
2021/08/01 00:27:43;;;;;;;2.67;1.80;;;;;;;;;;5057126;28;20032;-48
2021/08/01 00:30:10;;;;;;;6.00;2.10;;;;;;;;;;5065383;28;20078;-48
2021/08/01 00:32:37;;;;;;;2.97;1.83;;;;;;;;;;5061244;28;20033;-48
2021/08/01 00:35:03;;;;;;;2.45;1.58;;;;;;;;;;5067957;28;20461;-48
2021/08/01 00:37:29;;;;;;;3.90;2.13;;;;;;;;;;5070953;28;20165;-49
2021/08/01 00:39:55;;;;;;;2.83;1.70;;;;;;;;;;5069049;28;20035;-48
2021/08/01 00:42:21;;;;;;;3.28;1.75;;;;;;;;;;5060336;28;20048;-48
2021/08/01 00:44:47;;;;;;;2.03;1.52;;;;;;;;;;5083905;28;20028;-49
2021/08/01 00:47:13;;;;;;;2.60;1.77;;;;;;;;;;5074693;28;20024;-48
2021/08/01 00:49:40;;;;;;;3.10;2.03;;;;;;;;;;5066138;28;20128;-48
2021/08/01 00:52:06;;;;;;;5.43;2.00;;;;;;;;;;5052582;28;20027;-49
2021/08/01 00:54:33;;;;;;;4.65;2.53;;;;;;;;;;5071290;28;20024;-48
2021/08/01 00:56:59;;;;;;;3.03;1.88;;;;;;;;;;5076934;28;20115;-48
2021/08/01 00:59:25;;;;;;;4.20;2.15;;;;;;;;;;5063462;28;20400;-48
2021/08/01 01:02:04;;;;;;;4.70;2.20;;;;;;;;;;5059532;28;20029;-52
2021/08/01 01:04:42;;;;;;;2.67;1.90;;;;;;;;;;5068531;28;20047;-52
2021/08/01 01:07:17;;;;;;;3.78;1.80;;;;;;;;;;5071394;28;20032;-52
2021/08/01 01:10:02;;;;;;;5.57;2.30;;;;;;;;;;5071756;28;20136;-53
2021/08/01 01:12:33;;;;;;;4.63;2.00;;;;;;;;;;5058952;28;20041;-50
2021/08/01 01:15:01;;;;;;;2.53;2.05;;;;;;;;;;5075362;28;20025;-51
2021/08/01 01:17:29;;;;;;;3.15;1.85;;;;;;;;;;5057494;28;20017;-52
2021/08/01 01:20:04;;;;;;;3.08;2.00;;;;;;;;;;5058236;28;20491;-50
2021/08/01 01:22:41;;;;;;;1.80;1.60;;;;;;;;;;5053960;28;20487;-54
2021/08/01 01:25:14;;;;;;;3.75;2.10;;;;;;;;;;5072073;28;20659;-51
2021/08/01 01:27:45;;;;;;;2.58;2.15;;;;;;;;;;5069692;28;20032;-52
2021/08/01 01:30:11;;;;;;;2.78;2.17;;;;;;;;;;5052855;28;20043;-52
2021/08/01 01:32:42;;;;;;;2.75;1.90;;;;;;;;;;5064780;28;20055;-51
2021/08/01 01:35:18;;;;;;;2.88;2.10;;;;;;;;;;5090494;28;20103;-50
2021/08/01 01:37:45;;;;;;;5.90;1.80;;;;;;;;;;5075489;28;20488;-52
2021/08/01 01:40:12;;;;;;;3.00;1.85;;;;;;;;;;5081050;28;20031;-52
2021/08/01 01:42:39;;;;;;;2.42;2.20;;;;;;;;;;5060254;28;20384;-51
2021/08/01 01:45:05;;;;;;;3.53;2.70;;;;;;;;;;5062707;28;20535;-51
2021/08/01 01:47:31;;;;;;;2.42;1.90;;;;;;;;;;5060712;28;20040;-52
2021/08/01 01:49:58;;;;;;;3.10;2.05;;;;;;;;;;5079234;28;20056;-52
2021/08/01 01:52:25;;;;;;;2.47;2.05;;;;;;;;;;5059237;28;20032;-51
2021/08/01 01:54:52;;;;;;;5.13;2.33;;;;;;;;;;5057634;28;20072;-51
2021/08/01 01:57:18;;;;;;;2.33;2.13;;;;;;;;;;5087804;28;20173;-50
2021/08/01 01:59:44;;;;;;;3.20;2.33;;;;;;;;;;5051641;28;20021;-51
2021/08/01 02:02:10;;;;;;;3.20;2.17;;;;;;;;;;5058810;28;20488;-52
2021/08/01 02:04:37;;;;;;;2.97;2.20;;;;;;;;;;5081720;28;20029;-53
2021/08/01 02:07:04;;;;;;;3.17;2.20;;;;;;;;;;5064496;28;20120;-53
2021/08/01 02:09:48;;;;;;;3.25;2.25;;;;;;;;;;5073381;28;20155;-50
2021/08/01 02:12:19;;;;;;;5.18;2.40;;;;;;;;;;5067331;28;20036;-51
2021/08/01 02:14:59;;;;;;;2.60;2.15;;;;;;;;;;5071372;28;20516;-50
2021/08/01 02:17:29;;;;;;;3.15;2.30;;;;;;;;;;5055765;28;20027;-51
2021/08/01 02:19:56;;;;;;;7.18;2.70;;;;;;;;;;5067787;28;20024;-51
2021/08/01 02:22:22;;;;;;;3.63;2.15;;;;;;;;;;5061077;28;20115;-50
2021/08/01 02:24:49;;;;;;;3.03;2.30;;;;;;;;;;5065026;28;20120;-50
2021/08/01 02:27:15;;;;;;;5.25;2.55;;;;;;;;;;5068223;28;20029;-50
2021/08/01 02:29:41;;;;;;;3.20;2.08;;;;;;;;;;5072312;28;20032;-50
2021/08/01 02:32:07;;;;;;;3.95;2.25;;;;;;;;;;5081987;28;20027;-50
2021/08/01 02:34:33;;;;;;;5.03;2.38;;;;;;;;;;5077043;28;20385;-51
2021/08/01 02:37:00;;;;;;;4.32;2.55;;;;;;;;;;5070721;28;20035;-51
2021/08/01 02:39:26;;;;;;;4.28;2.38;;;;;;;;;;5083281;28;20028;-51
2021/08/01 02:41:53;;;;;;;4.78;2.58;;;;;;;;;;5071746;28;20081;-50
2021/08/01 02:44:24;;;;;;;2.58;2.25;;;;;;;;;;5068413;28;20442;-50
2021/08/01 02:46:51;;;;;;;3.53;2.63;;;;;;;;;;5072026;28;20037;-52
2021/08/01 02:49:19;;;;;;;4.00;2.78;;;;;;;;;;5059512;28;20024;-52
2021/08/01 02:51:47;;;;;;;3.22;2.47;;;;;;;;;;5072649;28;20544;-50
2021/08/01 02:54:13;;;;;;;4.20;2.20;;;;;;;;;;5077002;28;20020;-50
2021/08/01 02:56:40;;;;;;;4.68;2.28;;;;;;;;;;5061089;28;20112;-50
2021/08/01 02:59:06;;;;;;;2.47;2.08;;;;;;;;;;5085324;28;20772;-50
2021/08/01 03:01:33;;;;;;;3.30;2.72;;;;;;;;;;5060465;28;20089;-51
2021/08/01 03:04:00;;;;;;;3.50;2.83;;;;;;;;;;5091846;28;20486;-52
2021/08/01 03:06:32;;;;;;;4.55;3.10;;;;;;;;;;5069540;28;20376;-50
2021/08/01 03:08:59;;;;;;;3.30;2.67;;;;;;;;;;5076601;28;20032;-50
2021/08/01 03:11:25;;;;;;;4.13;3.00;;;;;;;;;;5074226;28;20139;-55
2021/08/01 03:13:51;;;;;;;4.20;2.65;;;;;;;;;;5095076;28;20795;-50
2021/08/01 03:16:17;;;;;;;3.90;2.95;;;;;;;;;;5072679;28;20554;-50
2021/08/01 03:18:43;;;;;;;2.85;2.30;;;;;;;;;;5077905;28;20028;-51
2021/08/01 03:21:09;;;;;;;3.42;2.50;;;;;;;;;;5063014;28;20052;-50
2021/08/01 03:23:35;;;;;;;3.63;2.85;;;;;;;;;;5063996;28;20032;-50
2021/08/01 03:26:01;;;;;;;6.90;3.25;;;;;;;;;;5065918;28;20033;-53
2021/08/01 03:28:27;;;;;;;8.90;3.20;;;;;;;;;;5065578;28;20035;-52
2021/08/01 03:30:52;;;;;;;4.53;2.28;;;;;;;;;;5067881;28;20037;-52
2021/08/01 03:33:18;;;;;;;4.72;2.40;;;;;;;;;;5085957;28;20062;-50
2021/08/01 03:35:44;;;;;;;5.03;2.92;;;;;;;;;;5072553;28;20537;-51
2021/08/01 03:38:10;;;;;;;3.90;3.35;;;;;;;;;;5083938;28;20020;-52
2021/08/01 03:40:36;;;;;;;4.53;2.70;;;;;;;;;;5094167;28;20016;-51
2021/08/01 03:43:02;;;;;;;3.75;2.60;;;;;;;;;;5068111;28;20032;-50
2021/08/01 03:45:28;;;;;;;5.18;2.53;;;;;;;;;;5070326;28;20473;-51
2021/08/01 03:47:54;;;;;;;4.90;2.75;;;;;;;;;;5063943;28;20047;-51
2021/08/01 03:50:20;;;;;;;4.05;3.05;;;;;;;;;;5064552;28;20021;-50
2021/08/01 03:52:46;;;;;;;3.80;2.53;;;;;;;;;;5063342;28;20921;-51
2021/08/01 03:55:12;;;;;;;3.10;2.33;;;;;;;;;;5057251;28;20033;-51
2021/08/01 03:57:38;;;;;;;5.18;3.20;;;;;;;;;;5092348;28;20028;-50
2021/08/01 04:00:06;;;;;;;3.67;2.78;;;;;;;;;;5090302;28;20027;-52
2021/08/01 04:02:34;;;;;;;3.47;2.80;;;;;;;;;;5063964;28;20036;-51
2021/08/01 04:05:00;;;;;;;4.63;3.13;;;;;;;;;;5056607;28;20420;-53
2021/08/01 04:07:26;;;;;;;4.15;2.50;;;;;;;;;;5072267;28;20040;-52
2021/08/01 04:09:52;;;;;;;3.90;2.67;;;;;;;;;;5081425;28;20560;-51
2021/08/01 04:12:19;;;;;;;4.72;3.08;;;;;;;;;;5072840;28;20389;-50
2021/08/01 04:14:45;;;;;;;2.80;2.58;;;;;;;;;;5078072;28;20049;-50
2021/08/01 04:17:11;;;;;;;4.63;3.17;;;;;;;;;;5071615;28;20078;-50
2021/08/01 04:19:37;;;;;;;3.20;2.83;;;;;;;;;;5066251;28;20404;-52
2021/08/01 04:22:03;;;;;;;4.15;2.65;;;;;;;;;;5065454;28;20062;-50
2021/08/01 04:24:29;;;;;;;3.40;2.92;;;;;;;;;;5065732;28;20104;-50
2021/08/01 04:26:56;;;;;;;5.82;3.20;;;;;;;;;;5063123;28;20086;-51
2021/08/01 04:29:22;;;;;;;4.55;3.00;;;;;;;;;;5076384;28;20051;-50
2021/08/01 04:31:48;;;;;;;3.83;2.65;;;;;;;;;;5075034;28;20063;-52
2021/08/01 04:34:16;;;;;;;3.40;2.75;;;;;;;;;;5082041;28;20020;-50
2021/08/01 04:36:42;;;;;;;4.57;3.08;;;;;;;;;;5067357;28;20459;-52
2021/08/01 04:39:08;;;;;;;4.57;2.88;;;;;;;;;;5068008;28;20063;-52
2021/08/01 04:41:34;;;;;;;5.95;3.20;;;;;;;;;;5082270;28;20078;-52
2021/08/01 04:44:00;;;;;;;5.28;3.17;;;;;;;;;;5065598;28;20428;-51
2021/08/01 04:46:26;;;;;;;5.82;2.90;;;;;;;;;;5065271;28;20025;-51
2021/08/01 04:48:52;;;;;;;3.67;2.90;;;;;;;;;;5057627;28;20039;-52
2021/08/01 04:51:18;;;;;;;4.38;2.80;;;;;;;;;;5073167;28;20073;-50
2021/08/01 04:53:44;;;;;;;5.28;3.05;;;;;;;;;;5058380;28;20036;-50
2021/08/01 04:56:11;;;;;;;6.90;2.70;;;;;;;;;;5078235;28;20032;-53
2021/08/01 04:58:37;;;;;;;3.60;2.83;;;;;;;;;;5067652;28;20523;-50
2021/08/01 05:01:09;;;;;;;4.40;3.30;;;;;;;;;;5058896;28;20052;-50
2021/08/01 05:03:35;;;;;;;5.33;3.33;;;;;;;;;;5073758;28;20055;-51
2021/08/01 05:06:01;;;;;;;4.25;2.78;;;;;;;;;;5084572;28;20029;-51
2021/08/01 05:08:27;;;;;;;4.30;3.10;;;;;;;;;;5069347;28;20029;-50
2021/08/01 05:10:53;;;;;;;4.32;3.35;;;;;;;;;;5078820;28;20102;-49
2021/08/01 05:13:19;;;;;;;4.05;2.88;;;;;;;;;;5070015;28;20031;-51
2021/08/01 05:15:45;;;;;;;6.88;3.67;;;;;;;;;;5077428;28;20025;-52
2021/08/01 05:18:11;;;;;;;4.78;2.97;;;;;;;;;;5056398;28;20451;-50
2021/08/01 05:20:41;;;;;;;4.38;3.33;;;;;;;;;;5066169;28;20028;-51
2021/08/01 05:23:07;;;;;;;7.82;3.08;;;;;;;;;;5067964;28;20479;-53
2021/08/01 05:25:33;;;;;;;5.68;3.17;;;;;;;;;;5068046;28;20032;-52
2021/08/01 05:27:58;;;;;;;4.78;3.00;;;;;;;;;;5069752;28;20499;-50
2021/08/01 05:30:24;;;;;;;6.32;3.38;;;;;;;;;;5072217;28;20051;-52
2021/08/01 05:32:50;;;;;;;6.50;4.25;;;;;;;;;;5068567;28;20032;-51
2021/08/01 05:35:17;;;;;;;5.75;2.85;;;;;;;;;;5068051;28;20124;-51
2021/08/01 05:37:42;;;;;;;3.00;2.70;;;;;;;;;;5075532;28;20132;-50
2021/08/01 05:40:10;;;;;;;6.22;3.00;;;;;;;;;;5059767;28;20032;-51
2021/08/01 05:42:37;;;;;;;5.28;3.28;;;;;;;;;;5069090;28;20429;-51
2021/08/01 05:45:03;;;;;;;10.95;3.70;;;;;;;;;;5070303;28;20055;-50
2021/08/01 05:47:29;;;;;;;4.53;3.75;;;;;;;;;;5064839;28;20039;-55
2021/08/01 05:49:55;;;;;;;5.55;3.72;;;;;;;;;;5083500;28;20028;-51
2021/08/01 05:52:21;;;;;;;4.38;3.05;;;;;;;;;;5065621;28;20108;-52
2021/08/01 05:54:47;;;;;;;7.30;3.50;;;;;;;;;;5052705;28;20057;-51
2021/08/01 05:57:13;;;;;;;4.10;3.35;;;;;;;;;;5077944;28;20059;-52
2021/08/01 05:59:39;;;;;;;6.03;3.63;;;;;;;;;;5090319;28;20047;-52
2021/08/01 06:02:05;;;;;;;5.07;3.35;;;;;;;;;;5080715;28;20495;-50
2021/08/01 06:04:31;;;;;;;5.32;3.28;;;;;;;;;;5065768;28;20440;-52
2021/08/01 06:06:57;;;;;;;4.72;3.00;;;;;;;;;;5066731;28;20040;-52
2021/08/01 06:09:23;;;;;;;6.20;3.10;;;;;;;;;;5070794;28;20038;-52
2021/08/01 06:11:49;;;;;;;3.65;2.78;;;;;;;;;;5060156;28;20025;-50
2021/08/01 06:14:15;;;;;;;6.55;3.42;;;;;;;;;;5072132;28;20491;-50
2021/08/01 06:16:41;;;;;;;4.65;3.35;;;;;;;;;;5065701;28;20377;-51
2021/08/01 06:19:08;;;;;;;5.00;2.42;;;;;;;;;;5067028;28;20068;-53
2021/08/01 06:21:35;;;;;;;5.53;2.70;;;;;;;;;;5071826;28;20481;-51
2021/08/01 06:24:01;;;;;;;4.70;2.40;;;;;;;;;;5068966;28;20025;-51
2021/08/01 06:26:27;;;;;;;3.33;2.63;;;;;;;;;;5059784;28;20047;-53
2021/08/01 06:28:53;;;;;;;3.25;2.78;;;;;;;;;;5063246;28;20037;-52
2021/08/01 06:31:19;;;;;;;4.47;2.80;;;;;;;;;;5060168;28;20028;-51
2021/08/01 06:33:45;;;;;;;3.78;2.63;;;;;;;;;;5064311;28;20439;-51
2021/08/01 06:36:12;;;;;;;3.40;2.70;;;;;;;;;;5057814;28;20047;-53
2021/08/01 06:38:38;;;;;;;4.00;2.92;;;;;;;;;;5060598;28;20039;-52
2021/08/01 06:41:05;;;;;;;4.60;2.80;;;;;;;;;;5055665;28;20056;-51
2021/08/01 06:43:31;;;;;;;3.97;2.53;;;;;;;;;;5057312;28;20493;-52
2021/08/01 06:45:57;;;;;;;6.45;2.50;;;;;;;;;;5058475;28;20028;-50
2021/08/01 06:48:23;;;;;;;4.72;2.53;;;;;;;;;;5055540;28;20028;-51
2021/08/01 06:50:49;;;;;;;4.43;2.58;;;;;;;;;;5058324;28;20036;-51
2021/08/01 06:53:15;;;;;;;4.60;2.60;;;;;;;;;;5054852;28;20048;-51
2021/08/01 06:55:41;;;;;;;4.72;3.10;;;;;;;;;;5062235;28;20020;-51
2021/08/01 06:58:07;;;;;;;4.63;2.60;;;;;;;;;;5089679;28;20123;-50
2021/08/01 07:00:33;;;;;;;3.45;2.88;;;;;;;;;;5072217;28;20029;-50
2021/08/01 07:03:00;;;;;;;2.72;2.25;;;;;;;;;;5057854;28;20047;-50
2021/08/01 07:05:27;;;;;;;5.30;2.60;;;;;;;;;;5055857;28;20474;-50
2021/08/01 07:07:53;;;;;;;4.03;2.80;;;;;;;;;;5058494;28;20036;-51
2021/08/01 07:10:19;;;;;;;5.43;2.30;;;;;;;;;;5074048;28;20062;-52
2021/08/01 07:12:46;;;;;;;6.65;3.35;;;;;;;;;;5071221;28;20371;-52
2021/08/01 07:15:13;;;;;;;4.53;2.80;;;;;;;;;;5080106;28;20464;-50
2021/08/01 07:17:39;;;;;;;4.60;2.55;;;;;;;;;;5065583;28;20107;-50
2021/08/01 07:20:06;;;;;;;4.00;2.58;;;;;;;;;;5083246;28;20020;-51
2021/08/01 07:22:32;;;;;;;6.05;3.35;;;;;;;;;;5070419;28;20024;-50
2021/08/01 07:24:59;;;;;;;5.50;2.83;;;;;;;;;;5059806;28;20433;-54
2021/08/01 07:27:25;;;;;;;5.63;3.05;;;;;;;;;;5076300;28;20025;-50
2021/08/01 07:29:51;;;;;;;6.20;3.25;;;;;;;;;;5069085;28;20030;-51
2021/08/01 07:32:17;;;;;;;5.22;2.97;;;;;;;;;;5069681;28;20060;-52
2021/08/01 07:34:43;;;;;;;4.75;2.55;;;;;;;;;;5067061;28;20020;-50
2021/08/01 07:37:09;;;;;;;3.78;2.95;;;;;;;;;;5074438;28;20029;-51
2021/08/01 07:39:35;;;;;;;5.32;2.90;;;;;;;;;;5078619;28;20024;-51
2021/08/01 07:42:01;;;;;;;7.82;3.20;;;;;;;;;;5060343;28;20036;-53
2021/08/01 07:44:29;;;;;;;5.30;2.67;;;;;;;;;;5064238;28;20024;-50
2021/08/01 07:46:55;;;;;;;4.22;3.03;;;;;;;;;;5064832;28;20099;-51
2021/08/01 07:49:22;;;;;;;6.30;3.47;;;;;;;;;;5063696;28;20085;-51
2021/08/01 07:51:48;;;;;;;5.28;3.08;;;;;;;;;;5064112;28;20037;-51
2021/08/01 07:54:14;;;;;;;4.00;2.58;;;;;;;;;;5068956;28;20031;-52
2021/08/01 07:56:40;;;;;;;4.32;2.53;;;;;;;;;;5061970;28;20060;-50
2021/08/01 07:59:06;;;;;;;3.00;2.50;;;;;;;;;;5075904;28;20418;-51
2021/08/01 08:01:32;;;;;;;5.07;2.53;;;;;;;;;;5060510;28;20036;-51
2021/08/01 08:03:58;;;;;;;3.30;2.38;;;;;;;;;;5069533;28;20033;-50
2021/08/01 08:06:24;;;;;;;3.85;2.70;;;;;;;;;;5070491;28;20025;-50
2021/08/01 08:08:50;;;;;;;6.30;2.30;;;;;;;;;;5066272;28;20039;-51
2021/08/01 08:11:16;;;;;;;4.07;2.40;;;;;;;;;;5061248;28;20048;-50
2021/08/01 08:13:42;;;;;;;2.85;2.55;;;;;;;;;;5058970;28;20029;-51
2021/08/01 08:16:08;;;;;;;3.97;2.95;;;;;;;;;;5067768;28;20025;-52
2021/08/01 08:18:34;;;;;;;6.40;2.72;;;;;;;;;;5058495;28;20044;-50
2021/08/01 08:21:00;;;;;;;4.50;2.95;;;;;;;;;;5058544;28;20033;-51
2021/08/01 08:23:26;;;;;;;4.30;2.85;;;;;;;;;;5054400;28;20032;-51
2021/08/01 08:25:54;;;;;;;6.05;2.60;;;;;;;;;;5060492;28;20792;-51
2021/08/01 08:28:20;;;;;;;4.35;2.10;;;;;;;;;;5061507;28;20032;-53
2021/08/01 08:30:46;;;;;;;3.33;2.20;;;;;;;;;;5068196;28;20063;-51
2021/08/01 08:33:12;;;;;;;3.75;2.78;;;;;;;;;;5063598;28;20024;-52
2021/08/01 08:35:40;;;;;;;4.00;2.50;;;;;;;;;;5067093;28;20116;-50
2021/08/01 08:38:06;;;;;;;3.10;2.05;;;;;;;;;;5068926;28;20368;-51
2021/08/01 08:40:37;;;;;;;3.55;2.42;;;;;;;;;;5054939;28;20044;-52
2021/08/01 08:43:03;;;;;;;4.32;2.75;;;;;;;;;;5057963;28;20085;-54
2021/08/01 08:45:29;;;;;;;4.55;2.03;;;;;;;;;;5056427;28;20032;-50
2021/08/01 08:47:56;;;;;;;3.30;2.30;;;;;;;;;;5059874;28;20375;-52
2021/08/01 08:50:22;;;;;;;4.38;2.20;;;;;;;;;;5057735;28;20025;-53
2021/08/01 08:52:51;;;;;;;4.30;2.42;;;;;;;;;;5056664;28;20059;-50
2021/08/01 08:55:18;;;;;;;6.63;2.42;;;;;;;;;;5061343;28;20062;-53
2021/08/01 08:57:49;;;;;;;5.78;2.28;;;;;;;;;;5052343;28;20108;-52
2021/08/01 09:00:15;;;;;;;3.30;2.15;;;;;;;;;;5073181;28;20459;-50
2021/08/01 09:02:41;;;;;;;2.60;2.10;;;;;;;;;;5085812;28;20066;-50
2021/08/01 09:05:08;;;;;;;3.45;2.22;;;;;;;;;;5083513;28;20024;-51
2021/08/01 09:07:34;;;;;;;5.03;2.05;;;;;;;;;;5081463;28;20464;-51
2021/08/01 09:10:00;;;;;;;2.70;1.70;;;;;;;;;;5067929;28;20101;-50
2021/08/01 09:12:26;;;;;;;4.65;2.30;;;;;;;;;;5061113;28;20589;-50
2021/08/01 09:15:28;;;;;;;2.58;1.90;;;;;;;;;;5079013;28;20032;-50
2021/08/01 09:17:55;;;;;;;4.72;2.08;;;;;;;;;;5051793;28;20644;-50
2021/08/01 09:20:22;;;;;;;5.45;2.05;;;;;;;;;;5070157;28;20043;-51
2021/08/01 09:23:00;;;;;;;3.20;2.05;;;;;;;;;;5065609;28;20035;-55
2021/08/01 09:25:28;;;;;;;3.22;2.05;;;;;;;;;;5071999;28;20103;-51
2021/08/01 09:28:13;;;;;;;4.85;2.03;;;;;;;;;;5092291;28;20055;-50
2021/08/01 09:30:44;;;;;;;4.13;2.35;;;;;;;;;;5076503;28;20029;-52
2021/08/01 09:33:10;;;;;;;4.18;1.90;;;;;;;;;;5081990;28;20029;-55
2021/08/01 09:35:36;;;;;;;3.00;1.90;;;;;;;;;;5082529;28;20036;-51
2021/08/01 09:38:02;;;;;;;3.42;2.22;;;;;;;;;;5077817;28;20032;-52
2021/08/01 09:40:29;;;;;;;3.47;1.85;;;;;;;;;;5070525;28;20028;-53
2021/08/01 09:42:55;;;;;;;3.20;1.90;;;;;;;;;;5091992;28;20031;-51
2021/08/01 09:45:22;;;;;;;3.25;2.10;;;;;;;;;;5086836;28;20155;-52
2021/08/01 09:47:49;;;;;;;4.15;1.77;;;;;;;;;;5074921;28;20052;-50
2021/08/01 09:50:16;;;;;;;3.30;1.98;;;;;;;;;;5083054;28;20016;-50
2021/08/01 09:52:42;;;;;;;4.30;2.17;;;;;;;;;;5073116;28;20495;-51
2021/08/01 09:55:18;;;;;;;6.85;2.58;;;;;;;;;;5090369;28;20020;-51
2021/08/01 09:57:51;;;;;;;4.13;1.70;;;;;;;;;;5073536;28;20028;-50
2021/08/01 10:00:18;;;;;;;3.42;2.08;;;;;;;;;;5090834;28;20012;-53
2021/08/01 10:02:44;;;;;;;5.15;1.88;;;;;;;;;;5070147;28;20038;-52
2021/08/01 10:05:16;;;;;;;3.90;1.60;;;;;;;;;;5084421;28;20042;-55
2021/08/01 10:07:43;;;;;;;3.08;1.60;;;;;;;;;;5078836;28;20036;-50
2021/08/01 10:10:20;;;;;;;2.42;1.50;;;;;;;;;;5067033;28;20063;-52
2021/08/01 10:12:47;;;;;;;3.72;1.90;;;;;;;;;;5074196;28;20028;-51
2021/08/01 10:15:13;;;;;;;2.70;1.80;;;;;;;;;;5082016;28;20032;-51
2021/08/01 10:17:39;;;;;;;3.20;1.50;;;;;;;;;;5088864;28;20035;-53
2021/08/01 10:20:06;;;;;;;3.85;2.00;;;;;;;;;;5083476;28;20043;-53
2021/08/01 10:22:33;;;;;;;2.83;2.03;;;;;;;;;;5090758;28;20032;-51
2021/08/01 10:25:04;;;;;;;4.18;1.80;;;;;;;;;;5083036;28;20124;-52
2021/08/01 10:27:33;;;;;;;2.95;1.90;;;;;;;;;;5076654;28;20101;-52
2021/08/01 10:29:59;;;;;;;3.80;1.83;;;;;;;;;;5071457;28;20032;-52
2021/08/01 10:32:28;;;;;;;3.45;2.03;;;;;;;;;;5067377;28;20491;-52
2021/08/01 10:35:01;;;;;;;4.18;1.80;;;;;;;;;;5070198;28;20422;-52
2021/08/01 10:37:31;;;;;;;2.53;1.65;;;;;;;;;;5068721;28;20032;-53
2021/08/01 10:39:58;;;;;;;2.22;1.75;;;;;;;;;;5084437;28;20078;-51
2021/08/01 10:42:30;;;;;;;2.80;1.67;;;;;;;;;;5071952;28;20031;-54
2021/08/01 10:44:56;;;;;;;2.42;1.70;;;;;;;;;;5074018;28;20036;-53
2021/08/01 10:47:22;;;;;;;2.90;1.98;;;;;;;;;;5087039;28;20032;-51
2021/08/01 10:49:49;;;;;;;2.25;1.50;;;;;;;;;;5075259;28;20032;-50
2021/08/01 10:52:19;;;;;;;4.13;1.90;;;;;;;;;;5079096;28;20482;-51
2021/08/01 10:54:54;;;;;;;8.00;1.88;;;;;;;;;;5077898;28;20421;-52
2021/08/01 10:57:21;;;;;;;1.85;1.52;;;;;;;;;;5087406;28;20027;-52
2021/08/01 10:59:47;;;;;;;2.70;1.52;;;;;;;;;;5081017;28;20020;-51
2021/08/01 11:02:13;;;;;;;3.13;1.48;;;;;;;;;;5094270;28;20031;-52
2021/08/01 11:04:39;;;;;;;2.03;1.35;;;;;;;;;;5065084;28;20036;-50
2021/08/01 11:07:06;;;;;;;6.78;1.50;;;;;;;;;;5071654;28;20032;-50
2021/08/01 11:09:32;;;;;;;2.08;1.40;;;;;;;;;;5071571;28;20073;-51
2021/08/01 11:12:16;;;;;;;5.75;1.80;;;;;;;;;;5072932;28;20471;-53
2021/08/01 11:14:49;;;;;;;1.98;1.63;;;;;;;;;;5065437;28;20100;-50
2021/08/01 11:17:17;;;;;;;3.08;1.50;;;;;;;;;;5081182;28;20028;-50
2021/08/01 11:19:43;;;;;;;2.42;2.03;;;;;;;;;;5070986;28;20032;-51
2021/08/01 11:22:28;;;;;;;3.88;1.73;;;;;;;;;;5068004;28;20036;-50
2021/08/01 11:25:12;;;;;;;2.10;1.40;;;;;;;;;;5064332;28;20044;-52
2021/08/01 11:27:39;;;;;;;4.13;1.70;;;;;;;;;;5071704;28;20099;-50
2021/08/01 11:30:08;;;;;;;3.83;1.70;;;;;;;;;;5085074;28;20028;-52
2021/08/01 11:32:50;;;;;;;3.85;1.70;;;;;;;;;;5090716;28;20509;-50
2021/08/01 11:35:19;;;;;;;2.60;1.60;;;;;;;;;;5066110;28;20028;-51
2021/08/01 11:37:45;;;;;;;1.67;1.30;;;;;;;;;;5065673;28;20504;-53
2021/08/01 11:40:12;;;;;;;2.45;1.70;;;;;;;;;;5068921;28;20017;-50
2021/08/01 11:42:39;;;;;;;2.70;1.63;;;;;;;;;;5065225;28;20033;-54
2021/08/01 11:45:13;;;;;;;2.42;1.48;;;;;;;;;;5077039;28;20055;-50
2021/08/01 11:47:44;;;;;;;2.65;1.48;;;;;;;;;;5068584;28;20391;-50
2021/08/01 11:50:11;;;;;;;1.95;1.23;;;;;;;;;;5066699;28;20033;-53
2021/08/01 11:52:45;;;;;;;2.05;1.38;;;;;;;;;;5062459;28;20384;-50
2021/08/01 11:55:16;;;;;;;2.70;1.60;;;;;;;;;;5064970;28;20032;-51
2021/08/01 11:57:44;;;;;;;3.97;1.70;;;;;;;;;;5071132;28;20385;-50
2021/08/01 12:00:10;;;;;;;2.50;1.40;;;;;;;;;;5058304;28;20036;-51
2021/08/01 12:02:38;;;;;;;4.50;1.50;;;;;;;;;;5067063;28;20028;-51
2021/08/01 12:05:04;;;;;;;3.42;1.40;;;;;;;;;;5058043;28;20455;-51
2021/08/01 12:07:52;;;;;;;2.53;1.10;;;;;;;;;;5064718;28;20029;-51
2021/08/01 12:10:20;;;;;;;1.70;1.20;;;;;;;;;;5063649;28;20056;-50
2021/08/01 12:12:46;;;;;;;4.40;1.48;;;;;;;;;;5075435;28;20036;-50
2021/08/01 12:15:12;;;;;;;2.72;1.20;;;;;;;;;;5093784;28;20141;-50
2021/08/01 12:17:38;;;;;;;2.35;1.77;;;;;;;;;;5093051;28;20091;-50
2021/08/01 12:20:04;;;;;;;4.13;1.95;;;;;;;;;;5093521;28;20031;-53
2021/08/01 12:22:30;;;;;;;3.63;1.65;;;;;;;;;;5093590;28;20459;-51
2021/08/01 12:25:00;;;;;;;3.33;1.63;;;;;;;;;;5086514;28;20036;-52
2021/08/01 12:27:30;;;;;;;5.18;1.30;;;;;;;;;;5089156;28;20103;-50
2021/08/01 12:30:01;;;;;;;2.17;1.40;;;;;;;;;;5090635;28;20032;-52
2021/08/01 12:32:31;;;;;;;1.73;1.20;;;;;;;;;;5087852;28;20036;-51
2021/08/01 12:35:08;;;;;;;1.90;1.30;;;;;;;;;;5074698;28;20025;-50
2021/08/01 12:37:41;;;;;;;3.85;1.30;;;;;;;;;;5079334;28;20020;-51
2021/08/01 12:40:08;;;;;;;1.77;1.13;;;;;;;;;;5080424;28;20050;-50
2021/08/01 12:42:34;;;;;;;1.58;1.17;;;;;;;;;;5066509;28;20021;-51
2021/08/01 12:45:01;;;;;;;3.05;1.40;;;;;;;;;;5080821;28;20050;-50
2021/08/01 12:47:28;;;;;;;0.98;0.80;;;;;;;;;;5093415;28;20024;-50
2021/08/01 12:49:55;;;;;;;2.00;1.05;;;;;;;;;;5092940;28;20483;-52
2021/08/01 12:52:25;;;;;;;2.83;1.20;;;;;;;;;;5071355;28;20163;-50
2021/08/01 12:54:52;;;;;;;1.65;0.95;;;;;;;;;;5067005;28;20042;-51
2021/08/01 12:57:18;;;;;;;2.35;1.15;;;;;;;;;;5065034;28;20154;-51
2021/08/01 13:00:03;;;;;;;1.15;0.90;;;;;;;;;;5085040;28;20491;-51
2021/08/01 13:02:29;;;;;;;1.98;1.20;;;;;;;;;;5076355;28;20525;-50
2021/08/01 13:04:56;;;;;;;1.67;1.15;;;;;;;;;;5090736;28;20028;-50
2021/08/01 13:07:22;;;;;;;1.55;1.00;;;;;;;;;;5061391;28;20107;-51
2021/08/01 13:09:57;;;;;;;3.28;1.10;;;;;;;;;;5057588;28;20144;-51
2021/08/01 13:12:23;;;;;;;3.25;1.10;;;;;;;;;;5087031;28;20032;-50
2021/08/01 13:14:49;;;;;;;2.72;1.25;;;;;;;;;;5081066;28;20028;-50
2021/08/01 13:17:18;;;;;;;1.58;1.20;;;;;;;;;;5092577;28;20111;-51
2021/08/01 13:19:44;;;;;;;1.65;1.40;;;;;;;;;;5092280;28;20019;-50
2021/08/01 13:22:17;;;;;;;4.45;1.20;;;;;;;;;;5088422;28;20012;-50
2021/08/01 13:24:59;;;;;;;2.10;1.25;;;;;;;;;;5084227;28;20016;-52
2021/08/01 13:27:26;;;;;;;5.95;1.10;;;;;;;;;;5068691;28;20028;-50
2021/08/01 13:30:10;;;;;;;3.63;1.50;;;;;;;;;;5091890;28;20028;-54
2021/08/01 13:32:39;;;;;;;1.70;1.50;;;;;;;;;;5074002;28;20036;-51
2021/08/01 13:35:16;;;;;;;2.80;1.58;;;;;;;;;;5086863;28;20063;-51
2021/08/01 13:37:42;;;;;;;2.45;1.50;;;;;;;;;;5061126;28;20154;-50
2021/08/01 13:40:08;;;;;;;4.07;1.58;;;;;;;;;;5088356;28;20380;-51
2021/08/01 13:42:36;;;;;;;4.90;2.75;;;;;;;;;;5086868;28;20024;-50
2021/08/01 13:45:04;;;;;;;5.47;2.20;;;;;;;;;;5068462;28;20032;-51
2021/08/01 13:47:34;;;;;;;4.57;2.20;;;;;;;;;;5079148;28;20032;-53
2021/08/01 13:50:02;;;;;;;4.95;2.45;;;;;;;;;;5091900;28;20074;-51
2021/08/01 13:52:30;;;;;;;9.93;2.40;;;;;;;;;;5070299;28;20548;-51
2021/08/01 13:54:57;;;;;;;9.68;3.60;;;;;;;;;;5070022;28;20038;-51
2021/08/01 13:57:25;;;;;;;5.13;2.72;;;;;;;;;;5062530;28;20021;-51
2021/08/01 13:59:55;;;;;;;5.03;3.13;;;;;;;;;;5065257;28;20107;-53
2021/08/01 14:02:21;;;;;;;4.28;2.70;;;;;;;;;;5066470;28;20029;-51
2021/08/01 14:04:47;;;;;;;3.60;2.50;;;;;;;;;;5067411;28;20505;-51
2021/08/01 14:07:13;;;;;;;3.92;2.33;;;;;;;;;;5074945;28;20056;-52
2021/08/01 14:09:39;;;;;;;5.38;2.63;;;;;;;;;;5057065;28;20052;-51
2021/08/01 14:12:05;;;;;;;3.83;1.95;;;;;;;;;;5082191;28;20035;-51
2021/08/01 14:14:32;;;;;;;6.47;1.75;;;;;;;;;;5073321;28;20112;-50
2021/08/01 14:16:58;;;;;;;5.20;2.45;;;;;;;;;;5076400;28;20029;-50
2021/08/01 14:19:24;;;;;;;3.03;2.10;;;;;;;;;;5084602;28;20042;-52
2021/08/01 14:21:50;;;;;;;6.18;2.35;;;;;;;;;;5081431;28;20028;-51
2021/08/01 14:24:17;;;;;;;1.77;1.45;;;;;;;;;;5088736;28;20128;-50
2021/08/01 14:26:48;;;;;;;2.08;1.38;;;;;;;;;;5083332;28;20081;-51
2021/08/01 14:29:15;;;;;;;2.03;1.30;;;;;;;;;;5077935;28;20437;-51
2021/08/01 14:31:44;;;;;;;4.10;1.23;;;;;;;;;;5058836;28;20090;-51
2021/08/01 14:34:12;;;;;;;2.22;1.48;;;;;;;;;;5092069;28;20024;-49
2021/08/01 14:36:39;;;;;;;5.40;1.42;;;;;;;;;;5087933;28;20076;-50
2021/08/01 14:39:09;;;;;;;1.55;1.00;;;;;;;;;;5084528;28;20028;-50
2021/08/01 14:41:35;;;;;;;2.92;1.70;;;;;;;;;;5085831;28;20032;-50
2021/08/01 14:44:01;;;;;;;2.03;1.10;;;;;;;;;;5060707;28;20078;-48
2021/08/01 14:46:29;;;;;;;1.50;1.10;;;;;;;;;;5069440;28;20103;-50